createdAt,value
2023-03-21T00:00:57.236Z,9.83
2023-03-21T00:03:28.844Z,11.93
2023-03-21T00:06:00.449Z,19.47
2023-03-21T00:08:28.726Z,8.07
2023-03-21T00:10:58.373Z,11.70
2023-03-21T00:13:32.541Z,14.30
2023-03-21T00:16:11.127Z,14.30
2023-03-21T00:18:48.834Z,17.67
2023-03-21T00:24:09.189Z,34.97
2023-03-21T00:26:38.241Z,15.33
2023-03-21T00:29:10.096Z,19.53
2023-03-21T00:31:41.296Z,10.83
2023-03-21T00:36:41.225Z,12.90
2023-03-21T00:39:09.722Z,11.43
2023-03-21T00:41:45.099Z,14.50
2023-03-21T00:44:15.777Z,17.57
2023-03-21T00:46:54.395Z,15.53
2023-03-21T00:49:33.644Z,16.10
2023-03-21T00:52:27.558Z,12.17
2023-03-21T00:54:53.000Z,13.37
2023-03-21T00:57:29.355Z,19.33
2023-03-21T01:00:02.141Z,13.80
2023-03-21T01:02:32.287Z,11.50
2023-03-21T01:05:00.467Z,19.53
2023-03-21T01:07:28.678Z,16.13
2023-03-21T01:09:56.927Z,13.57
2023-03-21T01:12:27.638Z,17.23
2023-03-21T01:14:57.771Z,19.97
2023-03-21T01:17:27.304Z,15.90
2023-03-21T01:19:55.514Z,10.93
2023-03-21T01:22:26.652Z,11.17
2023-03-21T01:25:00.643Z,20.43
2023-03-21T01:27:34.071Z,11.70
2023-03-21T01:30:02.586Z,13.10
2023-03-21T01:32:32.712Z,16.47
2023-03-21T01:35:00.892Z,14.40
2023-03-21T01:37:29.098Z,14.57
2023-03-21T01:39:57.245Z,16.47
2023-03-21T01:42:25.462Z,12.87
2023-03-21T01:44:56.733Z,12.27
2023-03-21T01:47:28.641Z,15.07
2023-03-21T01:50:17.182Z,18.60
2023-03-21T01:52:55.155Z,17.93
2023-03-21T01:55:32.465Z,14.37
2023-03-21T01:58:19.927Z,11.10
2023-03-21T02:01:02.596Z,10.87
2023-03-21T02:03:50.084Z,13.70
2023-03-21T02:06:33.696Z,13.93
2023-03-21T02:09:15.887Z,14.73
2023-03-21T02:11:46.581Z,25.87
2023-03-21T02:14:28.355Z,15.77
2023-03-21T02:17:22.805Z,21.33
2023-03-21T02:20:25.433Z,16.70
2023-03-21T02:23:27.602Z,10.77
2023-03-21T02:26:41.188Z,11.63
2023-03-21T02:29:31.512Z,8.63
2023-03-21T02:32:22.417Z,10.47
2023-03-21T02:35:27.502Z,11.93
2023-03-21T02:38:01.428Z,7.93
2023-03-21T02:40:36.588Z,17.53
2023-03-21T02:43:20.854Z,17.50
2023-03-21T02:45:54.826Z,15.70
2023-03-21T02:48:38.153Z,9.80
2023-03-21T02:51:17.313Z,11.13
2023-03-21T02:54:10.220Z,18.57
2023-03-21T02:56:41.516Z,12.77
2023-03-21T02:59:11.294Z,12.90
2023-03-21T03:01:39.588Z,49.70
2023-03-21T03:04:19.943Z,12.27
2023-03-21T03:07:12.437Z,7.80
2023-03-21T03:09:57.351Z,10.77
2023-03-21T03:12:33.454Z,10.17
2023-03-21T03:15:11.656Z,8.90
2023-03-21T03:17:51.983Z,6.83
2023-03-21T03:20:31.598Z,8.50
2023-03-21T03:23:08.817Z,7.07
2023-03-21T03:25:43.575Z,9.73
2023-03-21T03:28:18.845Z,7.33
2023-03-21T03:31:01.123Z,7.50
2023-03-21T03:33:42.533Z,14.70
2023-03-21T03:36:28.401Z,7.27
2023-03-21T03:38:59.176Z,14.27
2023-03-21T03:41:34.952Z,8.00
2023-03-21T03:44:13.704Z,12.00
2023-03-21T03:46:56.218Z,9.87
2023-03-21T03:49:27.529Z,10.03
2023-03-21T03:52:00.002Z,11.03
2023-03-21T03:54:41.798Z,14.87
2023-03-21T03:57:13.982Z,10.70
2023-03-21T03:59:45.846Z,11.60
2023-03-21T04:02:27.222Z,10.10
2023-03-21T04:04:57.920Z,9.27
2023-03-21T04:07:26.386Z,13.47
2023-03-21T04:09:59.405Z,14.07
2023-03-21T04:12:30.108Z,11.23
2023-03-21T04:15:21.450Z,6.40
2023-03-21T04:17:55.889Z,19.57
2023-03-21T04:20:36.103Z,14.37
2023-03-21T04:23:05.657Z,7.37
2023-03-21T04:25:36.906Z,11.80
2023-03-21T04:28:08.297Z,11.17
2023-03-21T04:30:58.595Z,10.07
2023-03-21T04:33:29.077Z,13.30
2023-03-21T04:35:59.227Z,10.57
2023-03-21T04:38:31.786Z,8.47
2023-03-21T04:41:04.336Z,5.63
2023-03-21T04:43:36.510Z,6.27
2023-03-21T04:46:04.828Z,11.87
2023-03-21T04:48:33.243Z,7.57
2023-03-21T04:51:02.625Z,8.10
2023-03-21T04:53:31.483Z,5.57
2023-03-21T04:56:00.746Z,10.87
2023-03-21T04:58:29.808Z,9.70
2023-03-21T05:00:59.404Z,8.33
2023-03-21T05:03:30.646Z,15.73
2023-03-21T05:05:59.745Z,11.70
2023-03-21T05:08:30.654Z,11.60
2023-03-21T05:10:58.925Z,10.57
2023-03-21T05:13:28.820Z,10.63
2023-03-21T05:15:57.081Z,10.27
2023-03-21T05:18:27.024Z,8.30
2023-03-21T05:21:10.762Z,6.57
2023-03-21T05:23:42.187Z,7.03
2023-03-21T05:26:11.311Z,6.07
2023-03-21T05:28:50.154Z,5.93
2023-03-21T05:31:19.257Z,6.47
2023-03-21T05:33:51.652Z,10.20
2023-03-21T05:36:21.616Z,11.00
2023-03-21T05:38:52.533Z,6.47
2023-03-21T05:41:21.488Z,13.97
2023-03-21T05:43:50.002Z,9.20
2023-03-21T05:46:18.308Z,7.20
2023-03-21T05:48:49.464Z,5.90
2023-03-21T05:51:24.937Z,6.40
2023-03-21T05:53:53.399Z,7.90
2023-03-21T05:56:22.766Z,7.50
2023-03-21T05:59:08.894Z,4.00
2023-03-21T06:01:42.312Z,9.77
2023-03-21T06:04:16.453Z,6.37
2023-03-21T06:06:49.293Z,10.87
2023-03-21T06:09:20.952Z,6.63
2023-03-21T06:11:59.556Z,5.47
2023-03-21T06:14:43.423Z,4.77
2023-03-21T06:17:33.185Z,7.20
2023-03-21T06:20:12.985Z,18.03
2023-03-21T06:22:52.173Z,8.03
2023-03-21T06:25:21.892Z,7.77
2023-03-21T06:27:50.319Z,8.70
2023-03-21T06:30:19.992Z,11.33
2023-03-21T06:33:26.998Z,5.23
2023-03-21T06:35:56.490Z,5.63
2023-03-21T06:38:26.940Z,6.10
2023-03-21T06:40:55.253Z,5.90
2023-03-21T06:43:25.979Z,7.93
2023-03-21T06:45:54.373Z,9.13
2023-03-21T06:48:22.624Z,6.63
2023-03-21T06:50:52.901Z,5.90
2023-03-21T06:53:27.304Z,6.60
2023-03-21T06:56:16.126Z,6.03
2023-03-21T06:58:46.687Z,3.70
2023-03-21T07:01:35.131Z,5.27
2023-03-21T07:04:07.565Z,10.07
2023-03-21T07:06:37.371Z,5.83
2023-03-21T07:09:06.154Z,7.13
2023-03-21T07:11:37.057Z,6.33
2023-03-21T07:14:06.671Z,5.40
2023-03-21T07:16:34.902Z,5.93
2023-03-21T07:19:03.103Z,6.67
2023-03-21T07:21:31.325Z,6.23
2023-03-21T07:23:59.837Z,4.00
2023-03-21T07:26:28.192Z,4.47
2023-03-21T07:28:57.856Z,5.90
2023-03-21T07:31:29.615Z,7.90
2023-03-21T07:33:57.891Z,5.10
2023-03-21T07:36:26.508Z,12.63
2023-03-21T07:38:54.716Z,5.60
2023-03-21T07:41:25.388Z,7.10
2023-03-21T07:43:53.614Z,6.43
2023-03-21T07:46:23.230Z,6.33
2023-03-21T07:48:51.799Z,8.93
2023-03-21T07:51:19.968Z,7.20
2023-03-21T07:53:50.750Z,4.13
2023-03-21T07:56:21.979Z,4.07
2023-03-21T07:58:52.631Z,6.90
2023-03-21T08:01:22.415Z,4.30
2023-03-21T08:03:51.444Z,6.87
2023-03-21T08:06:19.650Z,3.70
2023-03-21T08:08:47.978Z,6.90
2023-03-21T08:11:18.155Z,5.23
2023-03-21T08:13:46.349Z,6.60
2023-03-21T08:16:14.537Z,5.10
2023-03-21T08:18:44.239Z,4.37
2023-03-21T08:21:12.415Z,4.57
2023-03-21T08:23:40.765Z,6.67
2023-03-21T08:26:09.365Z,4.13
2023-03-21T08:28:39.436Z,4.73
2023-03-21T08:31:11.780Z,4.30
2023-03-21T08:33:40.404Z,6.67
2023-03-21T08:36:11.184Z,4.93
2023-03-21T08:38:39.585Z,7.03
2023-03-21T08:41:08.268Z,6.40
2023-03-21T08:43:36.571Z,5.63
2023-03-21T08:46:05.452Z,5.97
2023-03-21T08:48:33.813Z,3.60
2023-03-21T08:51:02.141Z,3.70
2023-03-21T08:53:31.807Z,6.10
2023-03-21T08:56:00.023Z,4.40
2023-03-21T08:58:30.718Z,6.67
2023-03-21T09:00:58.910Z,3.60
2023-03-21T09:03:27.314Z,5.30
2023-03-21T09:05:55.556Z,3.40
2023-03-21T09:08:24.399Z,3.20
2023-03-21T09:10:56.252Z,6.77
2023-03-21T09:13:25.641Z,10.20
2023-03-21T09:15:54.266Z,3.53
2023-03-21T09:18:42.488Z,4.53
2023-03-21T09:21:12.877Z,9.17
2023-03-21T09:23:41.549Z,4.40
2023-03-21T09:26:11.455Z,6.57
2023-03-21T09:28:40.620Z,4.40
2023-03-21T09:31:11.412Z,9.60
2023-03-21T09:33:41.462Z,6.77
2023-03-21T09:36:12.909Z,5.20
2023-03-21T09:38:42.911Z,4.37
2023-03-21T09:41:26.336Z,6.40
2023-03-21T09:44:08.245Z,3.30
2023-03-21T09:46:42.772Z,5.33
2023-03-21T09:49:17.710Z,4.53
2023-03-21T09:51:52.953Z,3.47
2023-03-21T09:54:27.432Z,3.13
2023-03-21T09:57:01.152Z,2.83
2023-03-21T09:59:36.627Z,4.67
2023-03-21T10:02:16.257Z,3.50
2023-03-21T10:04:44.972Z,4.30
2023-03-21T10:07:18.208Z,5.20
2023-03-21T10:09:48.429Z,4.60
2023-03-21T10:12:22.872Z,8.87
2023-03-21T10:14:57.961Z,7.87
2023-03-21T10:17:33.486Z,5.33
2023-03-21T10:20:13.528Z,4.90
2023-03-21T10:22:42.229Z,3.40
2023-03-21T10:25:16.544Z,3.10
2023-03-21T10:27:47.554Z,3.87
2023-03-21T10:30:27.395Z,2.50
2023-03-21T10:33:02.432Z,4.87
2023-03-21T10:35:33.552Z,2.50
2023-03-21T10:38:02.417Z,2.97
2023-03-21T10:40:31.501Z,3.57
2023-03-21T10:43:19.157Z,4.50
2023-03-21T10:45:48.367Z,4.37
2023-03-21T10:48:17.170Z,3.60
2023-03-21T10:50:49.678Z,4.87
2023-03-21T10:53:22.492Z,4.83
2023-03-21T10:55:55.329Z,4.33
2023-03-21T10:58:29.433Z,3.23
2023-03-21T11:01:00.055Z,3.00
2023-03-21T11:03:32.368Z,6.40
2023-03-21T11:06:04.223Z,8.43
2023-03-21T11:08:38.691Z,3.80
2023-03-21T11:11:08.904Z,4.83
2023-03-21T11:13:42.352Z,7.40
2023-03-21T11:16:13.095Z,7.17
2023-03-21T11:18:43.436Z,5.63
2023-03-21T11:21:14.423Z,3.40
2023-03-21T11:23:46.947Z,4.20
2023-03-21T11:26:24.104Z,3.60
2023-03-21T11:28:54.492Z,12.20
2023-03-21T11:31:24.871Z,4.27
2023-03-21T11:33:55.430Z,3.67
2023-03-21T11:36:34.783Z,3.77
2023-03-21T11:39:35.376Z,5.67
2023-03-21T11:42:04.634Z,5.20
2023-03-21T11:44:36.500Z,4.83
2023-03-21T11:47:04.802Z,4.60
2023-03-21T11:49:33.047Z,4.03
2023-03-21T11:52:18.236Z,3.70
2023-03-21T11:55:17.131Z,4.40
2023-03-21T11:58:05.341Z,4.67
2023-03-21T12:00:47.881Z,4.50
2023-03-21T12:03:48.368Z,3.57
2023-03-21T12:06:27.902Z,3.80
2023-03-21T12:09:11.826Z,3.93
2023-03-21T12:11:55.796Z,4.80
2023-03-21T12:14:36.140Z,4.40
2023-03-21T12:17:19.396Z,2.73
2023-03-21T12:20:12.725Z,6.00
2023-03-21T12:22:58.020Z,2.50
2023-03-21T12:25:30.287Z,3.67
2023-03-21T12:28:11.161Z,3.40
2023-03-21T12:30:55.469Z,4.90
2023-03-21T12:33:47.407Z,5.00
2023-03-21T12:36:37.375Z,3.70
2023-03-21T12:39:18.613Z,4.40
2023-03-21T12:42:00.586Z,4.70
2023-03-21T12:44:36.348Z,6.37
2023-03-21T12:47:11.248Z,4.43
2023-03-21T12:49:46.309Z,5.00
2023-03-21T12:52:17.778Z,3.07
2023-03-21T12:54:56.217Z,3.40
2023-03-21T12:57:30.559Z,4.53
2023-03-21T13:00:11.142Z,7.17
2023-03-21T13:02:44.209Z,4.90
2023-03-21T13:05:20.843Z,7.60
2023-03-21T13:07:53.040Z,3.90
2023-03-21T13:10:23.453Z,3.33
2023-03-21T13:13:05.011Z,5.07
2023-03-21T13:15:50.611Z,7.10
2023-03-21T13:18:32.242Z,7.03
2023-03-21T13:21:06.737Z,6.00
2023-03-21T13:23:38.765Z,4.97
2023-03-21T13:26:11.309Z,4.50
2023-03-21T13:28:43.292Z,4.80
2023-03-21T13:31:19.556Z,4.00
2023-03-21T13:33:49.779Z,3.20
2023-03-21T13:36:25.816Z,7.10
2023-03-21T13:38:56.417Z,4.57
2023-03-21T13:41:30.931Z,3.83
2023-03-21T13:44:10.154Z,3.27
2023-03-21T13:46:54.015Z,4.10
2023-03-21T13:49:32.625Z,4.57
2023-03-21T13:52:03.770Z,4.70
2023-03-21T13:54:49.691Z,4.07
2023-03-21T13:57:39.814Z,6.40
2023-03-21T14:00:24.242Z,3.90
2023-03-21T14:02:58.396Z,3.60
2023-03-21T14:05:28.568Z,3.80
2023-03-21T14:08:12.377Z,3.70
2023-03-21T14:10:44.536Z,3.60
2023-03-21T14:13:20.071Z,4.13
2023-03-21T14:15:55.920Z,4.70
2023-03-21T14:18:47.793Z,3.50
2023-03-21T14:21:23.581Z,3.60
2023-03-21T14:24:00.068Z,3.80
2023-03-21T14:26:31.219Z,4.60
2023-03-21T14:28:59.831Z,4.87
2023-03-21T14:31:28.321Z,5.67
2023-03-21T14:33:59.172Z,3.77
2023-03-21T14:36:29.922Z,7.77
2023-03-21T14:39:07.239Z,4.60
2023-03-21T14:41:44.345Z,3.00
2023-03-21T14:44:26.151Z,2.90
2023-03-21T14:47:00.230Z,4.80
2023-03-21T14:49:30.550Z,3.93
2023-03-21T14:52:02.178Z,5.27
2023-03-21T14:54:32.340Z,4.30
2023-03-21T14:57:03.755Z,5.97
2023-03-21T14:59:35.895Z,3.77
2023-03-21T15:02:19.250Z,3.80
2023-03-21T15:04:51.464Z,3.90
2023-03-21T15:07:28.232Z,6.90
2023-03-21T15:10:03.972Z,3.63
2023-03-21T15:12:32.859Z,3.40
2023-03-21T15:15:02.079Z,4.30
2023-03-21T15:17:30.745Z,5.03
2023-03-21T15:19:58.974Z,3.27
2023-03-21T15:22:33.441Z,5.37
2023-03-21T15:25:06.902Z,3.40
2023-03-21T15:27:41.644Z,4.70
2023-03-21T15:30:20.956Z,7.00
2023-03-21T15:32:52.196Z,3.27
2023-03-21T15:35:23.595Z,4.50
2023-03-21T15:37:57.149Z,2.57
2023-03-21T15:40:29.037Z,3.40
2023-03-21T15:43:08.498Z,3.63
2023-03-21T15:45:48.411Z,3.67
2023-03-21T15:49:44.030Z,4.70
2023-03-21T15:53:13.557Z,4.40
2023-03-21T15:55:49.935Z,2.80
2023-03-21T15:58:21.071Z,4.30
2023-03-21T16:00:54.878Z,3.23
2023-03-21T16:03:27.221Z,4.87
2023-03-21T16:06:17.241Z,3.63
2023-03-21T16:08:47.091Z,4.50
2023-03-21T16:11:26.754Z,5.60
2023-03-21T16:13:56.703Z,3.40
2023-03-21T16:16:27.128Z,6.03
2023-03-21T16:18:56.849Z,3.03
2023-03-21T16:21:28.552Z,3.30
2023-03-21T16:23:58.222Z,2.83
2023-03-21T16:26:29.825Z,3.47
2023-03-21T16:28:58.401Z,3.63
2023-03-21T16:31:28.820Z,3.30
2023-03-21T16:33:57.147Z,3.40
2023-03-21T16:36:28.077Z,5.83
2023-03-21T16:38:56.931Z,4.17
2023-03-21T16:41:28.508Z,2.97
2023-03-21T16:43:56.740Z,3.50
2023-03-21T16:46:26.190Z,3.77
2023-03-21T16:48:55.970Z,4.23
2023-03-21T16:51:27.062Z,3.10
2023-03-21T16:53:55.961Z,4.17
2023-03-21T16:56:28.851Z,3.07
2023-03-21T16:58:58.635Z,2.60
2023-03-21T17:01:30.203Z,4.23
2023-03-21T17:03:59.302Z,3.80
2023-03-21T17:06:30.444Z,3.90
2023-03-21T17:09:00.634Z,3.20
2023-03-21T17:11:36.092Z,2.80
2023-03-21T17:14:04.352Z,3.60
2023-03-21T17:16:32.557Z,3.60
2023-03-21T17:19:01.817Z,3.47
2023-03-21T17:21:31.492Z,3.40
2023-03-21T17:23:59.880Z,4.10
2023-03-21T17:26:30.579Z,4.07
2023-03-21T17:28:59.851Z,4.10
2023-03-21T17:31:32.843Z,5.87
2023-03-21T17:34:03.025Z,3.43
2023-03-21T17:36:33.896Z,7.23
2023-03-21T17:39:08.865Z,3.93
2023-03-21T17:41:41.170Z,3.47
2023-03-21T17:44:09.404Z,3.83
2023-03-21T17:46:38.832Z,11.20
2023-03-21T17:49:07.839Z,3.70
2023-03-21T17:51:38.697Z,5.73
2023-03-21T17:54:07.209Z,4.13
2023-03-21T17:56:37.565Z,3.13
2023-03-21T17:59:09.514Z,3.50
2023-03-21T18:01:37.710Z,3.43
2023-03-21T18:04:10.985Z,3.50
2023-03-21T18:06:41.871Z,5.07
2023-03-21T18:09:11.954Z,3.10
2023-03-21T18:11:41.531Z,3.37
2023-03-21T18:14:19.497Z,3.07
2023-03-21T18:16:54.306Z,3.93
2023-03-21T18:19:22.888Z,3.30
2023-03-21T18:21:51.414Z,5.30
2023-03-21T18:24:19.678Z,7.10
2023-03-21T18:26:47.881Z,3.37
2023-03-21T18:30:15.709Z,4.17
2023-03-21T18:32:08.812Z,6.00
2023-03-21T18:34:39.501Z,5.50
2023-03-21T18:37:09.097Z,4.60
2023-03-21T18:39:38.667Z,4.73
2023-03-21T18:42:07.610Z,5.27
2023-03-21T18:44:46.895Z,3.47
2023-03-21T18:47:15.883Z,4.13
2023-03-21T18:52:33.044Z,5.03
2023-03-21T18:55:01.311Z,3.20
2023-03-21T18:57:36.802Z,4.43
2023-03-21T19:00:12.736Z,7.67
2023-03-21T19:02:45.474Z,8.93
2023-03-21T19:05:15.717Z,5.47
2023-03-21T19:07:44.312Z,5.67
2023-03-21T19:10:18.029Z,5.57
2023-03-21T19:12:47.791Z,4.80
2023-03-21T19:15:19.785Z,8.90
2023-03-21T19:20:37.915Z,5.67
2023-03-21T19:23:08.219Z,7.00
2023-03-21T19:25:38.002Z,4.80
2023-03-21T19:28:06.688Z,6.57
2023-03-21T19:30:36.743Z,4.57
2023-03-21T19:33:05.362Z,8.50
2023-03-21T19:35:37.320Z,5.33
2023-03-21T19:38:05.664Z,6.77
2023-03-21T19:40:33.870Z,17.03
2023-03-21T19:43:21.469Z,6.00
2023-03-21T19:45:54.059Z,7.13
2023-03-21T19:48:23.434Z,4.63
2023-03-21T19:51:25.883Z,5.50
2023-03-21T19:53:40.715Z,3.80
2023-03-21T19:56:21.113Z,5.17
2023-03-21T19:58:51.155Z,3.33
2023-03-21T20:01:21.137Z,7.77
2023-03-21T20:03:52.422Z,8.67
2023-03-21T20:06:22.245Z,3.77
2023-03-21T20:09:27.276Z,4.00
2023-03-21T20:11:39.027Z,7.30
2023-03-21T20:14:07.417Z,6.27
2023-03-21T20:16:37.546Z,4.03
2023-03-21T20:19:08.953Z,12.53
2023-03-21T20:21:53.043Z,5.07
2023-03-21T20:24:24.891Z,4.93
2023-03-21T20:26:54.980Z,4.60
2023-03-21T20:32:14.297Z,4.00
2023-03-21T20:34:44.364Z,3.90
2023-03-21T20:37:13.140Z,4.90
2023-03-21T20:39:41.736Z,5.17
2023-03-21T20:42:09.962Z,4.13
2023-03-21T20:44:57.730Z,5.20
2023-03-21T20:47:28.094Z,8.00
2023-03-21T20:49:56.853Z,7.70
2023-03-21T20:52:57.798Z,7.93
2023-03-21T20:55:14.319Z,12.53
2023-03-21T20:57:42.892Z,7.10
2023-03-21T21:00:14.911Z,9.20
2023-03-21T21:02:45.911Z,7.17
2023-03-21T21:05:27.420Z,7.97
2023-03-21T21:07:56.655Z,7.60
2023-03-21T21:10:25.920Z,9.00
2023-03-21T21:12:54.358Z,6.77
2023-03-21T21:15:22.537Z,8.47
2023-03-21T21:18:06.684Z,5.63
2023-03-21T21:20:37.012Z,8.70
2023-03-21T21:23:05.718Z,6.33
2023-03-21T21:25:34.856Z,6.63
2023-03-21T21:28:03.687Z,8.50
2023-03-21T21:30:33.639Z,9.10
2023-03-21T21:33:03.176Z,9.13
2023-03-21T21:35:33.554Z,9.03
2023-03-21T21:38:01.961Z,7.20
2023-03-21T21:40:30.157Z,9.50
2023-03-21T21:43:03.354Z,12.67
2023-03-21T21:45:31.775Z,18.38
2023-03-21T21:48:03.782Z,14.67
2023-03-21T21:50:32.050Z,12.63
2023-03-21T21:53:03.923Z,13.93
2023-03-21T21:55:32.779Z,13.15
2023-03-21T21:58:01.424Z,10.13
2023-03-21T22:00:34.195Z,7.38
2023-03-21T22:03:04.028Z,8.53
2023-03-21T22:05:32.670Z,7.70
2023-03-21T22:08:00.845Z,8.45
2023-03-21T22:10:29.226Z,8.47
2023-03-21T22:12:57.378Z,8.70
2023-03-21T22:15:26.081Z,9.60
2023-03-21T22:17:57.394Z,12.37
2023-03-21T22:20:27.005Z,12.37
2023-03-21T22:22:56.803Z,11.67
2023-03-21T22:25:25.262Z,11.70
2023-03-21T22:27:53.486Z,11.02
2023-03-21T22:30:21.917Z,6.70
2023-03-21T22:33:06.267Z,7.73
2023-03-21T22:35:38.062Z,7.72
2023-03-21T22:38:06.323Z,10.45
2023-03-21T22:40:34.526Z,12.57
2023-03-21T22:43:02.827Z,13.93
2023-03-21T22:45:31.093Z,18.63
2023-03-21T22:47:59.966Z,10.37
2023-03-21T22:50:28.696Z,8.17
2023-03-21T22:52:58.244Z,7.82
2023-03-21T22:55:26.448Z,6.97
2023-03-21T22:57:54.705Z,10.95
2023-03-21T23:00:22.908Z,15.93
2023-03-21T23:02:54.170Z,8.27
2023-03-21T23:05:22.365Z,8.32
2023-03-21T23:07:50.713Z,9.10
2023-03-21T23:10:20.616Z,13.60
2023-03-21T23:12:49.327Z,7.20
2023-03-21T23:15:17.718Z,9.23
2023-03-21T23:17:46.595Z,8.40
2023-03-21T23:20:14.839Z,6.43
2023-03-21T23:22:43.037Z,9.23
2023-03-21T23:25:11.995Z,8.97
2023-03-21T23:27:41.802Z,9.88
2023-03-21T23:30:10.515Z,6.75
2023-03-21T23:32:38.748Z,9.38
2023-03-21T23:35:08.191Z,13.40
2023-03-21T23:37:36.415Z,9.32
2023-03-21T23:40:06.373Z,9.68
2023-03-21T23:42:35.947Z,10.10
2023-03-21T23:45:06.578Z,9.25
2023-03-21T23:47:34.736Z,8.23
2023-03-21T23:50:06.921Z,13.75
2023-03-21T23:52:35.151Z,8.27
2023-03-21T23:55:03.357Z,10.50
2023-03-21T23:57:31.980Z,8.65
